Girolata — FPOD — position and weather

sailwx.info

Track history (hours):
 
Tides and Currents Weather Stations Pressure Air Temp Water Temp Dewpoint Dewpoint Depression Visibility Wind Speed Wind Dir Waves Ship Positions

Girolata

Last reported at 2017-Aug-22 22:30 UTC. Time now 2017-Aug-22 22:27 UTC.
Position N 42°24' E 007°06'.

Length 177 m; beam 27 m.

Type: Passenger vessel. MMSI: 226245000.

Date/timePositionNaut miles runAvg speedWind from/ knotsBaromVisibWave heightAir tempDewpointWater temp
2017-Aug-22 22:30N 42°24' E 007°06'816.8
2017-Aug-22 22:00N 42°20' E 007°16'816.8
2017-Aug-22 21:30N 42°16' E 007°26'816.8
2017-Aug-22 21:00N 42°12' E 007°35'816.9
2017-Aug-22 20:30N 42°07' E 007°45'816.8
2017-Aug-22 20:00N 42°03' E 007°55'816.8
2017-Aug-22 19:30N 41°59' E 008°05'11 0.6
2017-Aug-22 01:33N 42°03' E 007°51'117.6
2017-Aug-22 01:30N 42°03' E 007°50'917.6
2017-Aug-22 01:00N 42°07' E 007°39'917.3
2017-Aug-22 00:30N 42°11' E 007°29'917.2
2017-Aug-21 23:59N 42°15' E 007°18'4317.5
2017-Aug-21 21:30N 42°38' E 006°28'2117.2
2017-Aug-21 20:18N 42°49' E 006°04'3617.2
2017-Aug-21 18:12N 43°09' E 005°23'317.5
2017-Aug-21 18:01N 43°11' E 005°20'612.3
2017-Aug-21 17:30N 43°17' E 005°20'2 2.6
2017-Aug-21 16:50N 43°19' E 005°22'0 0.0
2017-Aug-21 16:20N 43°19' E 005°22'0 0.0
2017-Aug-21 15:56N 43°19' E 005°22'0 0.0
2017-Aug-21 15:26N 43°19' E 005°22'0 0.0
2017-Aug-21 14:38N 43°19' E 005°22'0 0.0
2017-Aug-21 14:26N 43°19' E 005°22'0 0.0
2017-Aug-21 13:56N 43°19' E 005°22'0 0.0
2017-Aug-21 11:20N 43°19' E 005°22'0 0.0
2017-Aug-21 10:59N 43°19' E 005°22'0 0.0
2017-Aug-21 10:29N 43°19' E 005°22'0 0.0
2017-Aug-21 09:56N 43°19' E 005°22'0 0.0
2017-Aug-21 09:29N 43°19' E 005°22'0 0.0
2017-Aug-21 08:59N 43°19' E 005°22'0 0.0
2017-Aug-21 06:53N 43°19' E 005°22'0 0.0
2017-Aug-21 06:29N 43°19' E 005°22'0 0.0
2017-Aug-21 05:59N 43°19' E 005°22'0 0.0
2017-Aug-21 05:23N 43°19' E 005°22'0 0.0
2017-Aug-21 05:00N 43°19' E 005°22'0 0.8
2017-Aug-21 04:30N 43°18' E 005°22'510.2
2017-Aug-21 04:00N 43°14' E 005°18'10917.1
2017-Aug-20 21:38N 42°18' E 007°25'217.1
2017-Aug-20 21:30N 42°17' E 007°28'917.2
2017-Aug-20 21:00N 42°12' E 007°38'3 0.2
2017-Aug-20 01:55N 42°10' E 007°40'715.6
2017-Aug-20 01:29N 42°13' E 007°32'815.4
2017-Aug-20 00:58N 42°16' E 007°22'715.7
2017-Aug-20 00:30N 42°19' E 007°14'815.6
2017-Aug-20 00:01N 42°23' E 007°04'815.8
2017-Aug-19 23:30N 42°26' E 006°55'815.6
2017-Aug-19 23:00N 42°30' E 006°45'815.2
2017-Aug-19 22:30N 42°34' E 006°36'814.8
2017-Aug-19 21:59N 42°38' E 006°27'714.8
2017-Aug-19 21:28N 42°41' E 006°18'1214.5
2017-Aug-19 20:40N 42°47' E 006°04'3714.5
2017-Aug-19 18:09N 43°08' E 005°23'215.1
2017-Aug-19 18:00N 43°09' E 005°21'714.4
2017-Aug-19 17:30N 43°17' E 005°20'3 4.9
2017-Aug-19 16:58N 43°19' E 005°22'0 0.0
2017-Aug-19 16:28N 43°19' E 005°22'0 0.0
2017-Aug-19 15:55N 43°19' E 005°22'0 0.0
2017-Aug-19 15:28N 43°19' E 005°22'0 0.0
2017-Aug-19 14:58N 43°19' E 005°22'0 0.0
2017-Aug-19 13:58N 43°19' E 005°22'0 0.0
2017-Aug-19 13:28N 43°19' E 005°22'0 0.0
2017-Aug-19 12:58N 43°19' E 005°22'0 0.0
2017-Aug-19 12:28N 43°19' E 005°22'0 0.0
2017-Aug-19 11:58N 43°19' E 005°22'0 0.0
2017-Aug-19 11:28N 43°19' E 005°22'0 0.0
2017-Aug-19 10:58N 43°19' E 005°22'0 0.0
2017-Aug-19 10:28N 43°19' E 005°22'0 0.0
2017-Aug-19 09:55N 43°19' E 005°22'0 0.0
2017-Aug-19 09:28N 43°19' E 005°22'0 0.0
2017-Aug-19 08:58N 43°19' E 005°22'0 0.0
2017-Aug-19 08:28N 43°19' E 005°22'0 0.0
2017-Aug-19 07:58N 43°19' E 005°22'0 0.0
2017-Aug-19 07:25N 43°19' E 005°22'0 0.0
2017-Aug-19 06:58N 43°19' E 005°22'0 0.0
2017-Aug-19 06:22N 43°19' E 005°22'0 0.0
2017-Aug-19 05:58N 43°19' E 005°22'0 0.0
2017-Aug-19 05:28N 43°19' E 005°22'0 0.0
2017-Aug-19 05:00N 43°19' E 005°22'1 1.4
2017-Aug-19 04:31N 43°18' E 005°22'510.6
2017-Aug-19 04:01N 43°13' E 005°18'816.4
2017-Aug-19 03:29N 43°07' E 005°25'7016.7
2017-Aug-18 23:18N 42°30' E 006°47'716.9
2017-Aug-18 22:54N 42°27' E 006°55'816.7
2017-Aug-18 22:24N 42°24' E 007°05'716.6
2017-Aug-18 22:00N 42°21' E 007°13'816.8
2017-Aug-18 21:30N 42°17' E 007°23'816.7
2017-Aug-18 21:00N 42°13' E 007°33'916.6
2017-Aug-18 20:28N 42°08' E 007°43'716.5
2017-Aug-18 20:00N 42°04' E 007°52'1116.5
2017-Aug-18 19:22N 41°58' E 008°04'616.4
2017-Aug-18 19:00N 41°56' E 008°11'1216.5
2017-Aug-18 18:16N 41°51' E 008°26'416.7
2017-Aug-18 18:00N 41°49' E 008°31'815.4
2017-Aug-18 17:30N 41°51' E 008°41'21 1.4
2017-Aug-18 02:38N 41°57' E 008°14'218.1
2017-Aug-18 02:31N 41°58' E 008°11'918.1
2017-Aug-18 02:01N 42°02' E 008°00'917.7
2017-Aug-18 01:28N 42°06' E 007°49'817.3
2017-Aug-18 01:01N 42°09' E 007°39'917.6
2017-Aug-18 00:30N 42°13' E 007°29'917.7
2017-Aug-18 00:00N 42°17' E 007°18'917.5
2017-Aug-17 23:30N 42°21' E 007°07'917.7
2017-Aug-17 23:01N 42°25' E 006°56'917.8
2017-Aug-17 22:31N 42°29' E 006°46'1717.3
2017-Aug-17 21:32N 42°37' E 006°26'116.4
2017-Aug-17 21:28N 42°37' E 006°24'1016.8
2017-Aug-17 20:52N 42°42' E 006°12'2617.3
2017-Aug-17 19:22N 42°56' E 005°42'617.3
2017-Aug-17 19:00N 42°60' E 005°35'817.0
2017-Aug-17 18:30N 43°05' E 005°26'816.6
2017-Aug-17 18:00N 43°11' E 005°19'612.4
2017-Aug-17 17:31N 43°17' E 005°20'2 2.7
2017-Aug-17 16:55N 43°19' E 005°22'0 0.0
2017-Aug-17 16:25N 43°19' E 005°22'0 0.0
2017-Aug-17 15:55N 43°19' E 005°22'0 0.0
2017-Aug-17 15:01N 43°19' E 005°22'0 0.0
2017-Aug-17 14:58N 43°19' E 005°22'0 0.0
2017-Aug-17 14:28N 43°19' E 005°22'0 0.0
2017-Aug-17 13:49N 43°19' E 005°22'0 0.0
2017-Aug-17 13:25N 43°19' E 005°22'0 0.0
2017-Aug-17 12:55N 43°19' E 005°22'0 0.0
2017-Aug-17 12:28N 43°19' E 005°22'0 0.0
2017-Aug-17 11:58N 43°19' E 005°22'0 0.0
2017-Aug-17 10:43N 43°19' E 005°22'0 0.0
2017-Aug-17 10:10N 43°19' E 005°22'0 0.0
2017-Aug-17 09:43N 43°19' E 005°22'0 0.0
2017-Aug-17 09:25N 43°19' E 005°22'0 0.0
2017-Aug-17 08:55N 43°19' E 005°22'0 0.0
2017-Aug-17 08:25N 43°19' E 005°22'0 0.0
2017-Aug-17 07:43N 43°19' E 005°22'0 0.0
2017-Aug-17 07:19N 43°19' E 005°22'0 0.0
2017-Aug-17 06:58N 43°19' E 005°22'0 0.0
2017-Aug-17 06:16N 43°19' E 005°22'0 0.0
2017-Aug-17 05:55N 43°19' E 005°22'0 0.0
2017-Aug-17 05:28N 43°19' E 005°22'0 0.0
2017-Aug-17 05:00N 43°19' E 005°22'1 1.4
2017-Aug-17 04:30N 43°18' E 005°22'510.4
2017-Aug-17 04:01N 43°14' E 005°18'816.3
2017-Aug-17 03:30N 43°07' E 005°25'916.9
2017-Aug-17 03:00N 43°03' E 005°35'917.4
2017-Aug-17 02:30N 42°59' E 005°45'917.1
2017-Aug-17 01:58N 42°54' E 005°56'817.0
2017-Aug-17 01:31N 42°50' E 006°05'916.9
2017-Aug-17 01:00N 42°47' E 006°16'817.0
2017-Aug-17 00:30N 42°43' E 006°26'816.8
2017-Aug-17 00:00N 42°39' E 006°36'816.6
2017-Aug-16 23:30N 42°35' E 006°46'816.6
2017-Aug-16 23:00N 42°31' E 006°56'816.7
2017-Aug-16 22:30N 42°27' E 007°06'816.7
2017-Aug-16 22:01N 42°23' E 007°16'816.8
2017-Aug-16 21:30N 42°18' E 007°25'816.9
2017-Aug-16 21:00N 42°14' E 007°35'816.6
2017-Aug-16 20:30N 42°10' E 007°45'816.5
2017-Aug-16 20:00N 42°06' E 007°55'816.9
2017-Aug-16 19:30N 42°01' E 008°04'816.8
2017-Aug-16 19:01N 41°57' E 008°14'816.7
2017-Aug-16 18:30N 41°53' E 008°23'1016.5
2017-Aug-16 17:54N 41°48' E 008°35'616.4
2017-Aug-16 17:30N 41°52' E 008°43'13 1.0
2017-Aug-16 03:54N 41°51' E 008°25'816.2
2017-Aug-16 03:23N 41°56' E 008°15'1315.7
2017-Aug-16 02:34N 42°02' E 008°01'115.6
2017-Aug-16 02:30N 42°03' E 007°60'2415.9
2017-Aug-16 00:59N 42°15' E 007°32'1015.8
2017-Aug-16 00:23N 42°20' E 007°21'615.8
2017-Aug-16 00:00N 42°23' E 007°14'815.6
2017-Aug-15 23:31N 42°27' E 007°05'815.8
2017-Aug-15 23:00N 42°31' E 006°56'815.6
2017-Aug-15 22:28N 42°34' E 006°45'715.6
2017-Aug-15 22:00N 42°37' E 006°36'815.7
2017-Aug-15 21:30N 42°41' E 006°27'815.8
2017-Aug-15 21:01N 42°45' E 006°17'816.3
2017-Aug-15 20:31N 42°49' E 006°08'816.6
2017-Aug-15 20:01N 42°53' E 005°58'816.1
2017-Aug-15 19:30N 42°57' E 005°48'815.9
2017-Aug-15 19:00N 43°01' E 005°39'815.7
2017-Aug-15 18:30N 43°05' E 005°30'815.8
2017-Aug-15 18:01N 43°09' E 005°21'714.1
2017-Aug-15 17:30N 43°16' E 005°20'3 5.4
2017-Aug-15 17:00N 43°19' E 005°22'0 0.0
2017-Aug-15 16:28N 43°19' E 005°22'0 0.0
2017-Aug-15 15:58N 43°19' E 005°22'0 0.0
2017-Aug-15 15:25N 43°19' E 005°22'0 0.0
2017-Aug-15 14:55N 43°19' E 005°22'0 0.0
2017-Aug-15 14:22N 43°19' E 005°22'0 0.0
2017-Aug-15 13:58N 43°19' E 005°22'0 0.0
2017-Aug-15 13:28N 43°19' E 005°22'0 0.0
2017-Aug-15 12:55N 43°19' E 005°22'0 0.0
2017-Aug-15 12:28N 43°19' E 005°22'0 0.0
2017-Aug-15 11:58N 43°19' E 005°22'0 0.0
2017-Aug-15 11:28N 43°19' E 005°22'0 0.0
2017-Aug-15 10:58N 43°19' E 005°22'0 0.0
2017-Aug-15 10:28N 43°19' E 005°22'0 0.0
2017-Aug-15 09:58N 43°19' E 005°22'0 0.0
2017-Aug-15 09:28N 43°19' E 005°22'0 0.0
2017-Aug-15 08:58N 43°19' E 005°22'0 0.0
2017-Aug-15 08:25N 43°19' E 005°22'0 0.0
2017-Aug-15 07:58N 43°19' E 005°22'0 0.0
2017-Aug-15 07:28N 43°19' E 005°22'0 0.0
2017-Aug-15 06:58N 43°19' E 005°22'0 0.0
2017-Aug-15 06:25N 43°19' E 005°22'0 0.0
2017-Aug-15 06:00N 43°19' E 005°22'1 1.0
2017-Aug-15 05:30N 43°18' E 005°22'510.7
2017-Aug-15 05:01N 43°14' E 005°18'714.7
2017-Aug-15 04:30N 43°08' E 005°24'816.0
2017-Aug-15 04:00N 43°04' E 005°33'815.7
2017-Aug-15 03:30N 42°60' E 005°42'815.5
2017-Aug-15 02:58N 42°54' E 005°51'715.6
2017-Aug-15 02:31N 42°51' E 005°59'815.8
2017-Aug-15 01:59N 42°46' E 006°09'1015.6
2017-Aug-15 01:20N 42°41' E 006°21'815.7
2017-Aug-15 00:49N 42°37' E 006°30'815.6
2017-Aug-15 00:19N 42°33' E 006°39'1015.6
2017-Aug-14 23:39N 42°28' E 006°51'215.6
2017-Aug-14 23:31N 42°27' E 006°54'815.5
2017-Aug-14 23:00N 42°23' E 007°04'1115.4
2017-Aug-14 22:19N 42°19' E 007°17'515.1
2017-Aug-14 22:00N 42°17' E 007°22'815.2
2017-Aug-14 21:30N 42°13' E 007°31'815.2
2017-Aug-14 21:00N 42°10' E 007°41'815.1
2017-Aug-14 20:30N 42°07' E 007°50'715.1
2017-Aug-14 20:00N 42°03' E 007°59'815.1
2017-Aug-14 19:30N 41°59' E 008°08'815.6
2017-Aug-14 18:59N 41°55' E 008°17'715.3
2017-Aug-14 18:29N 41°52' E 008°26'715.0
2017-Aug-14 18:01N 41°50' E 008°35'5 0.4
2017-Aug-14 04:15N 41°51' E 008°42'415.6
2017-Aug-14 04:00N 41°49' E 008°37'2516.2
2017-Aug-14 02:28N 42°01' E 008°08'1016.8
2017-Aug-14 01:54N 42°05' E 007°56'716.8
2017-Aug-14 01:30N 42°08' E 007°48'816.7
2017-Aug-14 01:00N 42°12' E 007°38'916.6
2017-Aug-14 00:29N 42°16' E 007°28'816.5
2017-Aug-14 00:00N 42°20' E 007°18'816.5
2017-Aug-13 23:30N 42°23' E 007°09'816.7
2017-Aug-13 23:00N 42°27' E 006°58'916.7
2017-Aug-13 22:27N 42°31' E 006°47'5516.6
2017-Aug-13 19:10N 42°59' E 005°43'416.8
2017-Aug-13 18:55N 43°00' E 005°38'717.0
2017-Aug-13 18:29N 43°04' E 005°29'816.8
2017-Aug-13 18:00N 43°10' E 005°21'714.4
2017-Aug-13 17:31N 43°17' E 005°20'2 4.7
2017-Aug-13 16:59N 43°19' E 005°22'0 0.0
2017-Aug-13 16:29N 43°19' E 005°22'0 0.0
2017-Aug-13 15:59N 43°19' E 005°22'0 0.0
2017-Aug-13 15:29N 43°19' E 005°22'0 0.0
2017-Aug-13 14:59N 43°19' E 005°22'0 0.0
2017-Aug-13 14:29N 43°19' E 005°22'0 0.0
2017-Aug-13 13:56N 43°19' E 005°22'0 0.0
2017-Aug-13 13:29N 43°19' E 005°22'0 0.0
2017-Aug-13 12:59N 43°19' E 005°22'0 0.0
2017-Aug-13 12:29N 43°19' E 005°22'0 0.0
2017-Aug-13 11:53N 43°19' E 005°22'0 0.0
2017-Aug-13 11:29N 43°19' E 005°22'0 0.0
2017-Aug-13 10:59N 43°19' E 005°22'0 0.0
2017-Aug-13 10:29N 43°19' E 005°22'0 0.0
2017-Aug-13 09:59N 43°19' E 005°22'0 0.0
2017-Aug-13 09:29N 43°19' E 005°22'0 0.0
2017-Aug-13 08:59N 43°19' E 005°22'0 0.0
2017-Aug-13 08:29N 43°19' E 005°22'0 0.0
2017-Aug-13 07:59N 43°19' E 005°22'0 0.0
2017-Aug-13 07:26N 43°19' E 005°22'0 0.0
2017-Aug-13 06:56N 43°19' E 005°22'0 0.0
2017-Aug-13 06:26N 43°19' E 005°22'0 0.0
2017-Aug-13 06:00N 43°19' E 005°22'0 0.1
2017-Aug-13 05:30N 43°19' E 005°22'4 7.7
2017-Aug-13 05:00N 43°16' E 005°18'712.9
2017-Aug-13 04:29N 43°09' E 005°21'2816.6
2017-Aug-13 02:46N 42°55' E 005°55'517.2
2017-Aug-13 02:28N 42°52' E 006°01'817.2
2017-Aug-13 02:00N 42°48' E 006°10'2116.8
2017-Aug-13 00:46N 42°36' E 006°34'615.9
2017-Aug-13 00:22N 42°33' E 006°41'616.4
2017-Aug-13 00:00N 42°30' E 006°48'816.6
2017-Aug-12 23:30N 42°26' E 006°58'816.5
2017-Aug-12 22:59N 42°23' E 007°09'816.4
2017-Aug-12 22:30N 42°20' E 007°18'816.4
2017-Aug-12 22:00N 42°16' E 007°28'  
Track history (hours):
 
Tides and Currents Weather Stations Pressure Air Temp Water Temp Dewpoint Dewpoint Depression Visibility Wind Speed Wind Dir Waves Ship Positions

Girolata

Last reported at 2017-Aug-22 22:30 UTC. Time now 2017-Aug-22 22:27 UTC.
Position N 42°24' E 007°06'.

Length 177 m; beam 27 m.

Type: Passenger vessel. MMSI: 226245000.

Date/timePositionNaut miles runAvg speedWind from/ knotsBaromVisibWave heightAir tempDewpointWater temp
2017-Aug-22 22:30N 42°24' E 007°06'816.8
2017-Aug-22 22:00N 42°20' E 007°16'816.8
2017-Aug-22 21:30N 42°16' E 007°26'816.8
2017-Aug-22 21:00N 42°12' E 007°35'816.9
2017-Aug-22 20:30N 42°07' E 007°45'816.8
2017-Aug-22 20:00N 42°03' E 007°55'816.8
2017-Aug-22 19:30N 41°59' E 008°05'11 0.6
2017-Aug-22 01:33N 42°03' E 007°51'117.6
2017-Aug-22 01:30N 42°03' E 007°50'917.6
2017-Aug-22 01:00N 42°07' E 007°39'917.3
2017-Aug-22 00:30N 42°11' E 007°29'917.2
2017-Aug-21 23:59N 42°15' E 007°18'4317.5
2017-Aug-21 21:30N 42°38' E 006°28'2117.2
2017-Aug-21 20:18N 42°49' E 006°04'3617.2
2017-Aug-21 18:12N 43°09' E 005°23'317.5
2017-Aug-21 18:01N 43°11' E 005°20'612.3
2017-Aug-21 17:30N 43°17' E 005°20'2 2.6
2017-Aug-21 16:50N 43°19' E 005°22'0 0.0
2017-Aug-21 16:20N 43°19' E 005°22'0 0.0
2017-Aug-21 15:56N 43°19' E 005°22'0 0.0
2017-Aug-21 15:26N 43°19' E 005°22'0 0.0
2017-Aug-21 14:38N 43°19' E 005°22'0 0.0
2017-Aug-21 14:26N 43°19' E 005°22'0 0.0
2017-Aug-21 13:56N 43°19' E 005°22'0 0.0
2017-Aug-21 11:20N 43°19' E 005°22'0 0.0
2017-Aug-21 10:59N 43°19' E 005°22'0 0.0
2017-Aug-21 10:29N 43°19' E 005°22'0 0.0
2017-Aug-21 09:56N 43°19' E 005°22'0 0.0
2017-Aug-21 09:29N 43°19' E 005°22'0 0.0
2017-Aug-21 08:59N 43°19' E 005°22'0 0.0
2017-Aug-21 06:53N 43°19' E 005°22'0 0.0
2017-Aug-21 06:29N 43°19' E 005°22'0 0.0
2017-Aug-21 05:59N 43°19' E 005°22'0 0.0
2017-Aug-21 05:23N 43°19' E 005°22'0 0.0
2017-Aug-21 05:00N 43°19' E 005°22'0 0.8
2017-Aug-21 04:30N 43°18' E 005°22'510.2
2017-Aug-21 04:00N 43°14' E 005°18'10917.1
2017-Aug-20 21:38N 42°18' E 007°25'217.1
2017-Aug-20 21:30N 42°17' E 007°28'917.2
2017-Aug-20 21:00N 42°12' E 007°38'3 0.2
2017-Aug-20 01:55N 42°10' E 007°40'715.6
2017-Aug-20 01:29N 42°13' E 007°32'815.4
2017-Aug-20 00:58N 42°16' E 007°22'715.7
2017-Aug-20 00:30N 42°19' E 007°14'815.6
2017-Aug-20 00:01N 42°23' E 007°04'815.8
2017-Aug-19 23:30N 42°26' E 006°55'815.6
2017-Aug-19 23:00N 42°30' E 006°45'815.2
2017-Aug-19 22:30N 42°34' E 006°36'814.8
2017-Aug-19 21:59N 42°38' E 006°27'714.8
2017-Aug-19 21:28N 42°41' E 006°18'1214.5
2017-Aug-19 20:40N 42°47' E 006°04'3714.5
2017-Aug-19 18:09N 43°08' E 005°23'215.1
2017-Aug-19 18:00N 43°09' E 005°21'714.4
2017-Aug-19 17:30N 43°17' E 005°20'3 4.9
2017-Aug-19 16:58N 43°19' E 005°22'0 0.0
2017-Aug-19 16:28N 43°19' E 005°22'0 0.0
2017-Aug-19 15:55N 43°19' E 005°22'0 0.0
2017-Aug-19 15:28N 43°19' E 005°22'0 0.0
2017-Aug-19 14:58N 43°19' E 005°22'0 0.0
2017-Aug-19 13:58N 43°19' E 005°22'0 0.0
2017-Aug-19 13:28N 43°19' E 005°22'0 0.0
2017-Aug-19 12:58N 43°19' E 005°22'0 0.0
2017-Aug-19 12:28N 43°19' E 005°22'0 0.0
2017-Aug-19 11:58N 43°19' E 005°22'0 0.0
2017-Aug-19 11:28N 43°19' E 005°22'0 0.0
2017-Aug-19 10:58N 43°19' E 005°22'0 0.0
2017-Aug-19 10:28N 43°19' E 005°22'0 0.0
2017-Aug-19 09:55N 43°19' E 005°22'0 0.0
2017-Aug-19 09:28N 43°19' E 005°22'0 0.0
2017-Aug-19 08:58N 43°19' E 005°22'0 0.0
2017-Aug-19 08:28N 43°19' E 005°22'0 0.0
2017-Aug-19 07:58N 43°19' E 005°22'0 0.0
2017-Aug-19 07:25N 43°19' E 005°22'0 0.0
2017-Aug-19 06:58N 43°19' E 005°22'0 0.0
2017-Aug-19 06:22N 43°19' E 005°22'0 0.0
2017-Aug-19 05:58N 43°19' E 005°22'0 0.0
2017-Aug-19 05:28N 43°19' E 005°22'0 0.0
2017-Aug-19 05:00N 43°19' E 005°22'1 1.4
2017-Aug-19 04:31N 43°18' E 005°22'510.6
2017-Aug-19 04:01N 43°13' E 005°18'816.4
2017-Aug-19 03:29N 43°07' E 005°25'7016.7
2017-Aug-18 23:18N 42°30' E 006°47'716.9
2017-Aug-18 22:54N 42°27' E 006°55'816.7
2017-Aug-18 22:24N 42°24' E 007°05'716.6
2017-Aug-18 22:00N 42°21' E 007°13'816.8
2017-Aug-18 21:30N 42°17' E 007°23'816.7
2017-Aug-18 21:00N 42°13' E 007°33'916.6
2017-Aug-18 20:28N 42°08' E 007°43'716.5
2017-Aug-18 20:00N 42°04' E 007°52'1116.5
2017-Aug-18 19:22N 41°58' E 008°04'616.4
2017-Aug-18 19:00N 41°56' E 008°11'1216.5
2017-Aug-18 18:16N 41°51' E 008°26'416.7
2017-Aug-18 18:00N 41°49' E 008°31'815.4
2017-Aug-18 17:30N 41°51' E 008°41'21 1.4
2017-Aug-18 02:38N 41°57' E 008°14'218.1
2017-Aug-18 02:31N 41°58' E 008°11'918.1
2017-Aug-18 02:01N 42°02' E 008°00'917.7
2017-Aug-18 01:28N 42°06' E 007°49'817.3
2017-Aug-18 01:01N 42°09' E 007°39'917.6
2017-Aug-18 00:30N 42°13' E 007°29'917.7
2017-Aug-18 00:00N 42°17' E 007°18'917.5
2017-Aug-17 23:30N 42°21' E 007°07'917.7
2017-Aug-17 23:01N 42°25' E 006°56'917.8
2017-Aug-17 22:31N 42°29' E 006°46'1717.3
2017-Aug-17 21:32N 42°37' E 006°26'116.4
2017-Aug-17 21:28N 42°37' E 006°24'1016.8
2017-Aug-17 20:52N 42°42' E 006°12'2617.3
2017-Aug-17 19:22N 42°56' E 005°42'617.3
2017-Aug-17 19:00N 42°60' E 005°35'817.0
2017-Aug-17 18:30N 43°05' E 005°26'816.6
2017-Aug-17 18:00N 43°11' E 005°19'612.4
2017-Aug-17 17:31N 43°17' E 005°20'2 2.7
2017-Aug-17 16:55N 43°19' E 005°22'0 0.0
2017-Aug-17 16:25N 43°19' E 005°22'0 0.0
2017-Aug-17 15:55N 43°19' E 005°22'0 0.0
2017-Aug-17 15:01N 43°19' E 005°22'0 0.0
2017-Aug-17 14:58N 43°19' E 005°22'0 0.0
2017-Aug-17 14:28N 43°19' E 005°22'0 0.0
2017-Aug-17 13:49N 43°19' E 005°22'0 0.0
2017-Aug-17 13:25N 43°19' E 005°22'0 0.0
2017-Aug-17 12:55N 43°19' E 005°22'0 0.0
2017-Aug-17 12:28N 43°19' E 005°22'0 0.0
2017-Aug-17 11:58N 43°19' E 005°22'0 0.0
2017-Aug-17 10:43N 43°19' E 005°22'0 0.0
2017-Aug-17 10:10N 43°19' E 005°22'0 0.0
2017-Aug-17 09:43N 43°19' E 005°22'0 0.0
2017-Aug-17 09:25N 43°19' E 005°22'0 0.0
2017-Aug-17 08:55N 43°19' E 005°22'0 0.0
2017-Aug-17 08:25N 43°19' E 005°22'0 0.0
2017-Aug-17 07:43N 43°19' E 005°22'0 0.0
2017-Aug-17 07:19N 43°19' E 005°22'0 0.0
2017-Aug-17 06:58N 43°19' E 005°22'0 0.0
2017-Aug-17 06:16N 43°19' E 005°22'0 0.0
2017-Aug-17 05:55N 43°19' E 005°22'0 0.0
2017-Aug-17 05:28N 43°19' E 005°22'0 0.0
2017-Aug-17 05:00N 43°19' E 005°22'1 1.4
2017-Aug-17 04:30N 43°18' E 005°22'510.4
2017-Aug-17 04:01N 43°14' E 005°18'816.3
2017-Aug-17 03:30N 43°07' E 005°25'916.9
2017-Aug-17 03:00N 43°03' E 005°35'917.4
2017-Aug-17 02:30N 42°59' E 005°45'917.1
2017-Aug-17 01:58N 42°54' E 005°56'817.0
2017-Aug-17 01:31N 42°50' E 006°05'916.9
2017-Aug-17 01:00N 42°47' E 006°16'817.0
2017-Aug-17 00:30N 42°43' E 006°26'816.8
2017-Aug-17 00:00N 42°39' E 006°36'816.6
2017-Aug-16 23:30N 42°35' E 006°46'816.6
2017-Aug-16 23:00N 42°31' E 006°56'816.7
2017-Aug-16 22:30N 42°27' E 007°06'816.7
2017-Aug-16 22:01N 42°23' E 007°16'816.8
2017-Aug-16 21:30N 42°18' E 007°25'816.9
2017-Aug-16 21:00N 42°14' E 007°35'816.6
2017-Aug-16 20:30N 42°10' E 007°45'816.5
2017-Aug-16 20:00N 42°06' E 007°55'816.9
2017-Aug-16 19:30N 42°01' E 008°04'816.8
2017-Aug-16 19:01N 41°57' E 008°14'816.7
2017-Aug-16 18:30N 41°53' E 008°23'1016.5
2017-Aug-16 17:54N 41°48' E 008°35'616.4
2017-Aug-16 17:30N 41°52' E 008°43'13 1.0
2017-Aug-16 03:54N 41°51' E 008°25'816.2
2017-Aug-16 03:23N 41°56' E 008°15'1315.7
2017-Aug-16 02:34N 42°02' E 008°01'115.6
2017-Aug-16 02:30N 42°03' E 007°60'2415.9
2017-Aug-16 00:59N 42°15' E 007°32'1015.8
2017-Aug-16 00:23N 42°20' E 007°21'615.8
2017-Aug-16 00:00N 42°23' E 007°14'815.6
2017-Aug-15 23:31N 42°27' E 007°05'815.8
2017-Aug-15 23:00N 42°31' E 006°56'815.6
2017-Aug-15 22:28N 42°34' E 006°45'715.6
2017-Aug-15 22:00N 42°37' E 006°36'815.7
2017-Aug-15 21:30N 42°41' E 006°27'815.8
2017-Aug-15 21:01N 42°45' E 006°17'816.3
2017-Aug-15 20:31N 42°49' E 006°08'816.6
2017-Aug-15 20:01N 42°53' E 005°58'816.1
2017-Aug-15 19:30N 42°57' E 005°48'815.9
2017-Aug-15 19:00N 43°01' E 005°39'815.7
2017-Aug-15 18:30N 43°05' E 005°30'815.8
2017-Aug-15 18:01N 43°09' E 005°21'714.1
2017-Aug-15 17:30N 43°16' E 005°20'3 5.4
2017-Aug-15 17:00N 43°19' E 005°22'0 0.0
2017-Aug-15 16:28N 43°19' E 005°22'0 0.0
2017-Aug-15 15:58N 43°19' E 005°22'0 0.0
2017-Aug-15 15:25N 43°19' E 005°22'0 0.0
2017-Aug-15 14:55N 43°19' E 005°22'0 0.0
2017-Aug-15 14:22N 43°19' E 005°22'0 0.0
2017-Aug-15 13:58N 43°19' E 005°22'0 0.0
2017-Aug-15 13:28N 43°19' E 005°22'0 0.0
2017-Aug-15 12:55N 43°19' E 005°22'0 0.0
2017-Aug-15 12:28N 43°19' E 005°22'0 0.0
2017-Aug-15 11:58N 43°19' E 005°22'0 0.0
2017-Aug-15 11:28N 43°19' E 005°22'0 0.0
2017-Aug-15 10:58N 43°19' E 005°22'0 0.0
2017-Aug-15 10:28N 43°19' E 005°22'0 0.0
2017-Aug-15 09:58N 43°19' E 005°22'0 0.0
2017-Aug-15 09:28N 43°19' E 005°22'0 0.0
2017-Aug-15 08:58N 43°19' E 005°22'0 0.0
2017-Aug-15 08:25N 43°19' E 005°22'0 0.0
2017-Aug-15 07:58N 43°19' E 005°22'0 0.0
2017-Aug-15 07:28N 43°19' E 005°22'0 0.0
2017-Aug-15 06:58N 43°19' E 005°22'0 0.0
2017-Aug-15 06:25N 43°19' E 005°22'0 0.0
2017-Aug-15 06:00N 43°19' E 005°22'1 1.0
2017-Aug-15 05:30N 43°18' E 005°22'510.7
2017-Aug-15 05:01N 43°14' E 005°18'714.7
2017-Aug-15 04:30N 43°08' E 005°24'816.0
2017-Aug-15 04:00N 43°04' E 005°33'815.7
2017-Aug-15 03:30N 42°60' E 005°42'815.5
2017-Aug-15 02:58N 42°54' E 005°51'715.6
2017-Aug-15 02:31N 42°51' E 005°59'815.8
2017-Aug-15 01:59N 42°46' E 006°09'1015.6
2017-Aug-15 01:20N 42°41' E 006°21'815.7
2017-Aug-15 00:49N 42°37' E 006°30'815.6
2017-Aug-15 00:19N 42°33' E 006°39'1015.6
2017-Aug-14 23:39N 42°28' E 006°51'215.6
2017-Aug-14 23:31N 42°27' E 006°54'815.5
2017-Aug-14 23:00N 42°23' E 007°04'1115.4
2017-Aug-14 22:19N 42°19' E 007°17'515.1
2017-Aug-14 22:00N 42°17' E 007°22'815.2
2017-Aug-14 21:30N 42°13' E 007°31'815.2
2017-Aug-14 21:00N 42°10' E 007°41'815.1
2017-Aug-14 20:30N 42°07' E 007°50'715.1
2017-Aug-14 20:00N 42°03' E 007°59'815.1
2017-Aug-14 19:30N 41°59' E 008°08'815.6
2017-Aug-14 18:59N 41°55' E 008°17'715.3
2017-Aug-14 18:29N 41°52' E 008°26'715.0
2017-Aug-14 18:01N 41°50' E 008°35'5 0.4
2017-Aug-14 04:15N 41°51' E 008°42'415.6
2017-Aug-14 04:00N 41°49' E 008°37'2516.2
2017-Aug-14 02:28N 42°01' E 008°08'1016.8
2017-Aug-14 01:54N 42°05' E 007°56'716.8
2017-Aug-14 01:30N 42°08' E 007°48'816.7
2017-Aug-14 01:00N 42°12' E 007°38'916.6
2017-Aug-14 00:29N 42°16' E 007°28'816.5
2017-Aug-14 00:00N 42°20' E 007°18'816.5
2017-Aug-13 23:30N 42°23' E 007°09'816.7
2017-Aug-13 23:00N 42°27' E 006°58'916.7
2017-Aug-13 22:27N 42°31' E 006°47'5516.6
2017-Aug-13 19:10N 42°59' E 005°43'416.8
2017-Aug-13 18:55N 43°00' E 005°38'717.0
2017-Aug-13 18:29N 43°04' E 005°29'816.8
2017-Aug-13 18:00N 43°10' E 005°21'714.4
2017-Aug-13 17:31N 43°17' E 005°20'2 4.7
2017-Aug-13 16:59N 43°19' E 005°22'0 0.0
2017-Aug-13 16:29N 43°19' E 005°22'0 0.0
2017-Aug-13 15:59N 43°19' E 005°22'0 0.0
2017-Aug-13 15:29N 43°19' E 005°22'0 0.0
2017-Aug-13 14:59N 43°19' E 005°22'0 0.0
2017-Aug-13 14:29N 43°19' E 005°22'0 0.0
2017-Aug-13 13:56N 43°19' E 005°22'0 0.0
2017-Aug-13 13:29N 43°19' E 005°22'0 0.0
2017-Aug-13 12:59N 43°19' E 005°22'0 0.0
2017-Aug-13 12:29N 43°19' E 005°22'0 0.0
2017-Aug-13 11:53N 43°19' E 005°22'0 0.0
2017-Aug-13 11:29N 43°19' E 005°22'0 0.0
2017-Aug-13 10:59N 43°19' E 005°22'0 0.0
2017-Aug-13 10:29N 43°19' E 005°22'0 0.0
2017-Aug-13 09:59N 43°19' E 005°22'0 0.0
2017-Aug-13 09:29N 43°19' E 005°22'0 0.0
2017-Aug-13 08:59N 43°19' E 005°22'0 0.0
2017-Aug-13 08:29N 43°19' E 005°22'0 0.0
2017-Aug-13 07:59N 43°19' E 005°22'0 0.0
2017-Aug-13 07:26N 43°19' E 005°22'0 0.0
2017-Aug-13 06:56N 43°19' E 005°22'0 0.0
2017-Aug-13 06:26N 43°19' E 005°22'0 0.0
2017-Aug-13 06:00N 43°19' E 005°22'0 0.1
2017-Aug-13 05:30N 43°19' E 005°22'4 7.7
2017-Aug-13 05:00N 43°16' E 005°18'712.9
2017-Aug-13 04:29N 43°09' E 005°21'2816.6
2017-Aug-13 02:46N 42°55' E 005°55'517.2
2017-Aug-13 02:28N 42°52' E 006°01'817.2
2017-Aug-13 02:00N 42°48' E 006°10'2116.8
2017-Aug-13 00:46N 42°36' E 006°34'615.9
2017-Aug-13 00:22N 42°33' E 006°41'616.4
2017-Aug-13 00:00N 42°30' E 006°48'816.6
2017-Aug-12 23:30N 42°26' E 006°58'816.5
2017-Aug-12 22:59N 42°23' E 007°09'816.4
2017-Aug-12 22:30N 42°20' E 007°18'816.4
2017-Aug-12 22:00N 42°16' E 007°28'  

Dump ship's entire track history